createdAt,value
2019-01-31T00:00:52.592Z,99451.09
2019-01-31T00:03:59.595Z,99449.96
2019-01-31T00:07:06.592Z,99445.88
2019-01-31T00:10:13.591Z,99452.13
2019-01-31T00:22:36.384Z,99448.38
2019-01-31T00:25:43.383Z,99448.59
2019-01-31T00:28:50.375Z,99447.02
2019-01-31T00:31:58.757Z,99442.94
2019-01-31T00:35:05.755Z,99442.77
2019-01-31T00:38:12.753Z,99446.63
2019-01-31T00:41:19.748Z,99438.67
2019-01-31T00:50:41.295Z,99438.06
2019-01-31T00:53:48.292Z,99438.94
2019-01-31T00:56:55.284Z,99445.17
2019-01-31T01:15:07.590Z,99447.52
2019-01-31T01:18:15.900Z,99452.19
2019-01-31T01:24:23.445Z,99453.16
2019-01-31T01:27:30.448Z,99457.48
2019-01-31T01:39:53.747Z,99461.83
2019-01-31T01:43:02.123Z,99462.88
2019-01-31T01:55:25.505Z,99470.34
2019-01-31T01:58:32.507Z,99477.66
2019-01-31T02:01:39.490Z,99473.50
2019-01-31T02:04:46.490Z,99474.16
2019-01-31T02:13:54.691Z,99471.98
2019-01-31T02:20:02.187Z,99476.77
2019-01-31T02:23:10.565Z,99472.47
2019-01-31T02:35:33.702Z,99476.55
2019-01-31T02:38:40.703Z,99475.03
2019-01-31T02:41:47.689Z,99472.14
2019-01-31T02:44:55.999Z,99478.95
2019-01-31T02:51:17.253Z,99478.02
2019-01-31T02:54:24.288Z,99476.27
2019-01-31T02:57:31.295Z,99474.04
2019-01-31T03:00:39.608Z,99478.36
2019-01-31T03:10:01.682Z,99481.94
2019-01-31T03:16:09.690Z,99488.66
2019-01-31T03:25:30.754Z,99488.41
2019-01-31T03:34:31.932Z,99494.71
2019-01-31T03:37:38.927Z,99499.75
2019-01-31T03:46:47.037Z,99512.20
2019-01-31T03:49:54.023Z,99501.62
2019-01-31T03:53:02.334Z,99506.33
2019-01-31T03:59:22.899Z,99513.47
2019-01-31T04:02:29.902Z,99514.45
2019-01-31T04:08:12.188Z,99511.27
2019-01-31T04:10:40.374Z,99521.01
2019-01-31T04:13:08.579Z,99520.84
2019-01-31T04:15:36.764Z,99527.72
2019-01-31T04:18:45.067Z,99534.05
2019-01-31T04:21:13.255Z,99535.51
2019-01-31T04:23:41.449Z,99542.61
2019-01-31T04:26:09.638Z,99546.80
2019-01-31T04:28:37.848Z,99549.75
2019-01-31T04:31:06.033Z,99548.16
2019-01-31T04:33:34.246Z,99549.52
2019-01-31T04:36:02.426Z,99552.74
2019-01-31T04:38:30.632Z,99556.69
2019-01-31T04:40:58.818Z,99555.27
2019-01-31T04:43:27.019Z,99555.58
2019-01-31T04:45:55.209Z,99551.87
2019-01-31T04:48:23.410Z,99553.78
2019-01-31T04:50:51.603Z,99550.41
2019-01-31T04:53:19.795Z,99553.34
2019-01-31T04:55:47.981Z,99555.43
2019-01-31T04:58:16.185Z,99561.15
2019-01-31T05:00:44.376Z,99566.28
2019-01-31T05:03:12.599Z,99566.34
2019-01-31T05:05:40.798Z,99575.02
2019-01-31T05:08:08.998Z,99579.66
2019-01-31T05:10:43.226Z,99575.66
2019-01-31T05:13:07.104Z,99577.14
2019-01-31T05:15:35.294Z,99567.59
2019-01-31T05:18:03.481Z,99576.59
2019-01-31T05:20:31.678Z,99578.12
2019-01-31T05:22:59.870Z,99571.56
2019-01-31T05:25:47.432Z,99572.67
2019-01-31T05:28:15.614Z,99570.81
2019-01-31T05:30:43.819Z,99571.36
2019-01-31T05:33:12.019Z,99570.00
2019-01-31T05:35:40.222Z,99578.19
2019-01-31T05:38:08.405Z,99576.04
2019-01-31T05:40:36.611Z,99571.52
2019-01-31T05:43:04.792Z,99575.34
2019-01-31T05:45:32.997Z,99575.92
2019-01-31T05:48:01.182Z,99575.84
2019-01-31T05:50:29.385Z,99576.91
2019-01-31T05:52:57.575Z,99575.78
2019-01-31T05:55:25.774Z,99583.27
2019-01-31T05:57:53.959Z,99581.02
2019-01-31T06:01:02.277Z,99582.70
2019-01-31T06:03:30.458Z,99590.02
2019-01-31T06:05:58.655Z,99588.42
2019-01-31T06:08:26.842Z,99583.64
2019-01-31T06:11:06.822Z,99586.75
2019-01-31T06:13:44.332Z,99591.16
2019-01-31T06:16:12.532Z,99588.26
2019-01-31T06:18:40.713Z,99593.45
2019-01-31T06:21:08.914Z,99594.20
2019-01-31T06:23:37.110Z,99592.58
2019-01-31T06:26:05.305Z,99601.41
2019-01-31T06:28:33.490Z,99600.36
2019-01-31T06:31:01.703Z,99602.13
2019-01-31T06:33:29.888Z,99585.97
2019-01-31T06:35:58.078Z,99587.01
2019-01-31T06:39:06.388Z,99599.02
2019-01-31T06:41:34.595Z,99595.02
2019-01-31T06:46:50.195Z,99604.68
2019-01-31T06:49:58.493Z,99608.54
2019-01-31T06:52:26.686Z,99612.37
2019-01-31T06:54:54.886Z,99603.46
2019-01-31T06:57:23.088Z,99617.97
2019-01-31T06:59:51.281Z,99619.38
2019-01-31T07:02:19.484Z,99619.13
2019-01-31T07:04:47.675Z,99622.98
2019-01-31T07:07:15.879Z,99620.25
2019-01-31T07:09:44.068Z,99622.98
2019-01-31T07:12:12.261Z,99622.16
2019-01-31T07:14:40.453Z,99626.52
2019-01-31T07:17:08.650Z,99626.25
2019-01-31T07:19:36.844Z,99619.13
2019-01-31T07:22:05.051Z,99629.37
2019-01-31T07:24:52.603Z,99627.51
2019-01-31T07:27:20.798Z,99627.91
2019-01-31T07:29:48.991Z,99633.00
2019-01-31T07:32:17.180Z,99635.98
2019-01-31T07:34:45.380Z,99638.16
2019-01-31T07:37:13.571Z,99639.64
2019-01-31T07:39:41.769Z,99637.28
2019-01-31T07:42:09.953Z,99637.60
2019-01-31T07:44:38.162Z,99645.23
2019-01-31T07:47:06.349Z,99645.73
2019-01-31T07:49:36.636Z,99646.83
2019-01-31T07:52:23.829Z,99649.50
2019-01-31T08:01:01.246Z,99650.55
2019-01-31T08:03:29.453Z,99645.41
2019-01-31T08:05:57.642Z,99655.77
2019-01-31T08:08:25.843Z,99653.33
2019-01-31T08:10:54.058Z,99654.91
2019-01-31T08:13:22.238Z,99665.44
2019-01-31T08:15:50.423Z,99654.77
2019-01-31T08:18:18.695Z,99659.03
2019-01-31T08:20:46.891Z,99664.42
2019-01-31T08:26:02.327Z,99669.69
2019-01-31T08:33:39.381Z,99677.32
2019-01-31T08:36:07.572Z,99678.69
2019-01-31T08:38:36.729Z,99677.23
2019-01-31T08:41:05.689Z,99680.78
2019-01-31T08:43:33.877Z,99686.18
2019-01-31T08:46:02.103Z,99687.86
2019-01-31T08:48:30.282Z,99689.72
2019-01-31T08:50:58.483Z,99697.53
2019-01-31T08:53:46.047Z,99700.38
2019-01-31T08:56:14.283Z,99705.37
2019-01-31T08:58:42.457Z,99709.67
2019-01-31T09:01:10.669Z,99708.21
2019-01-31T09:03:38.855Z,99708.80
2019-01-31T09:06:07.054Z,99703.33
2019-01-31T09:08:54.370Z,99707.66
2019-01-31T09:11:22.673Z,99710.01
2019-01-31T09:13:50.826Z,99708.91
2019-01-31T09:16:19.024Z,99707.71
2019-01-31T09:18:47.212Z,99707.33
2019-01-31T09:21:55.543Z,99716.02
2019-01-31T09:28:03.868Z,99715.03
2019-01-31T09:37:13.082Z,99731.30
2019-01-31T09:40:20.062Z,99734.78
2019-01-31T09:43:28.470Z,99722.41
2019-01-31T09:46:35.456Z,99734.81
2019-01-31T09:52:43.194Z,99737.21
2019-01-31T09:55:50.188Z,99742.61
2019-01-31T09:58:58.499Z,99742.35
2019-01-31T10:02:05.486Z,99741.48
2019-01-31T10:05:12.486Z,99746.94
2019-01-31T10:08:01.754Z,99745.02
2019-01-31T10:14:14.566Z,99747.69
2019-01-31T10:17:21.592Z,99753.00
2019-01-31T10:20:28.583Z,99756.98
2019-01-31T10:23:35.603Z,99755.78
2019-01-31T10:29:56.273Z,99759.33
2019-01-31T10:33:03.285Z,99760.05
2019-01-31T10:36:10.278Z,99757.09
2019-01-31T10:39:17.288Z,99753.54
2019-01-31T10:45:37.994Z,99760.35
2019-01-31T10:51:46.176Z,99751.55
2019-01-31T10:54:53.186Z,99756.30
2019-01-31T11:07:15.871Z,99763.00
2019-01-31T11:10:22.880Z,99756.56
2019-01-31T11:13:29.864Z,99764.11
2019-01-31T11:16:38.308Z,99774.09
2019-01-31T11:25:47.382Z,99779.56
2019-01-31T11:34:56.521Z,99784.36
2019-01-31T11:47:06.125Z,99781.83
2019-01-31T11:56:15.891Z,99778.68
2019-01-31T11:59:04.678Z,99777.70
2019-01-31T12:01:32.941Z,99785.42
2019-01-31T12:07:14.943Z,99781.33
2019-01-31T12:09:43.125Z,99777.25
2019-01-31T12:12:11.323Z,99779.74
2019-01-31T12:14:39.511Z,99776.06
2019-01-31T12:17:07.697Z,99779.11
2019-01-31T12:19:35.879Z,99769.22
2019-01-31T12:24:58.201Z,99775.84
2019-01-31T12:27:26.408Z,99776.71
2019-01-31T12:29:54.592Z,99773.42
2019-01-31T12:32:22.787Z,99772.28
2019-01-31T12:34:50.960Z,99771.47
2019-01-31T12:37:19.153Z,99768.32
2019-01-31T12:39:47.340Z,99764.77
2019-01-31T12:42:15.542Z,99759.85
2019-01-31T12:44:43.717Z,99757.32
2019-01-31T12:47:11.905Z,99761.09
2019-01-31T12:49:40.099Z,99762.05
2019-01-31T12:52:08.296Z,99757.52
2019-01-31T12:54:36.482Z,99748.67
2019-01-31T12:57:04.673Z,99752.16
2019-01-31T12:59:32.857Z,99748.67
2019-01-31T13:02:01.044Z,99749.06
2019-01-31T13:04:29.247Z,99744.09
2019-01-31T13:06:57.421Z,99745.86
2019-01-31T13:09:28.201Z,99745.39
2019-01-31T13:11:55.526Z,99742.38
2019-01-31T13:14:23.717Z,99746.05
2019-01-31T13:16:51.904Z,99748.09
2019-01-31T13:19:20.101Z,99751.77
2019-01-31T13:21:48.282Z,99752.67
2019-01-31T13:26:51.453Z,99751.33
2019-01-31T13:29:19.643Z,99755.16
2019-01-31T13:31:47.904Z,99750.18
2019-01-31T13:34:16.102Z,99754.73
2019-01-31T13:36:44.285Z,99759.11
2019-01-31T13:39:31.591Z,99753.70
2019-01-31T13:41:59.769Z,99750.62
2019-01-31T13:44:27.966Z,99750.65
2019-01-31T13:46:56.153Z,99748.28
2019-01-31T13:49:24.345Z,99751.55
2019-01-31T13:51:52.537Z,99749.80
2019-01-31T13:54:20.726Z,99748.38
2019-01-31T13:56:48.899Z,99749.95
2019-01-31T13:59:36.204Z,99749.77
2019-01-31T14:02:04.393Z,99752.70
2019-01-31T14:04:32.590Z,99747.52
2019-01-31T14:07:00.764Z,99756.35
2019-01-31T14:09:28.970Z,99753.08
2019-01-31T14:11:57.153Z,99751.20
2019-01-31T14:14:25.362Z,99751.48
2019-01-31T14:16:53.519Z,99751.36
2019-01-31T14:21:55.741Z,99749.13
2019-01-31T14:24:23.939Z,99751.48
2019-01-31T14:26:52.127Z,99754.08
2019-01-31T14:29:20.308Z,99754.08
2019-01-31T14:34:35.723Z,99755.94
2019-01-31T14:37:03.910Z,99751.59
2019-01-31T14:39:32.119Z,99753.27
2019-01-31T14:42:00.305Z,99752.89
2019-01-31T14:44:28.579Z,99758.56
2019-01-31T14:46:56.750Z,99757.77
2019-01-31T14:49:24.927Z,99760.91
2019-01-31T14:51:53.121Z,99759.07
2019-01-31T14:54:21.309Z,99759.66
2019-01-31T14:56:49.498Z,99763.16
2019-01-31T14:59:17.678Z,99764.53
2019-01-31T15:01:45.868Z,99765.74
2019-01-31T15:04:14.044Z,99767.64
2019-01-31T15:06:42.239Z,99767.20
2019-01-31T15:09:10.418Z,99763.73
2019-01-31T15:11:38.633Z,99768.27
2019-01-31T15:14:06.790Z,99763.16
2019-01-31T15:16:34.990Z,99760.42
2019-01-31T15:19:03.168Z,99758.84
2019-01-31T15:21:31.365Z,99765.55
2019-01-31T15:23:59.762Z,99764.23
2019-01-31T15:26:29.453Z,99762.09
2019-01-31T15:28:57.638Z,99763.45
2019-01-31T15:31:25.828Z,99765.05
2019-01-31T15:33:54.016Z,99760.32
2019-01-31T15:36:22.209Z,99765.20
2019-01-31T15:38:50.391Z,99765.09
2019-01-31T15:41:18.587Z,99763.88
2019-01-31T15:43:46.764Z,99762.50
2019-01-31T15:46:17.791Z,99765.52
2019-01-31T15:51:32.096Z,99757.37
2019-01-31T15:54:00.273Z,99766.21
2019-01-31T15:56:28.469Z,99768.20
2019-01-31T16:01:43.888Z,99764.27
2019-01-31T16:04:12.072Z,99761.25
2019-01-31T16:06:40.259Z,99763.17
2019-01-31T16:09:08.437Z,99761.88
2019-01-31T16:11:36.656Z,99760.52
2019-01-31T16:14:04.823Z,99764.11
2019-01-31T16:16:33.003Z,99766.39
2019-01-31T16:19:01.191Z,99766.63
2019-01-31T16:24:03.485Z,99770.23
2019-01-31T16:26:31.678Z,99777.48
2019-01-31T16:28:59.856Z,99774.27
2019-01-31T16:31:28.053Z,99775.62
2019-01-31T16:34:15.341Z,99774.77
2019-01-31T16:36:43.532Z,99780.86
2019-01-31T16:39:11.720Z,99776.89
2019-01-31T16:42:20.021Z,99777.12
2019-01-31T16:44:48.205Z,99774.41
2019-01-31T16:47:16.395Z,99771.91
2019-01-31T16:49:44.583Z,99786.16
2019-01-31T16:52:12.785Z,99778.23
2019-01-31T16:54:40.976Z,99781.86
2019-01-31T16:57:09.167Z,99783.94
2019-01-31T16:59:37.341Z,99786.11
2019-01-31T17:04:40.740Z,99788.41
2019-01-31T17:07:28.362Z,99787.75
2019-01-31T17:09:56.543Z,99788.05
2019-01-31T17:12:24.755Z,99797.08
2019-01-31T17:14:52.926Z,99797.54
2019-01-31T17:17:21.123Z,99795.48
2019-01-31T17:19:49.307Z,99800.97
2019-01-31T17:22:17.550Z,99796.66
2019-01-31T17:24:45.741Z,99799.17
2019-01-31T17:27:13.929Z,99796.86
2019-01-31T17:29:44.857Z,99796.14
2019-01-31T17:32:12.029Z,99795.34
2019-01-31T17:34:40.224Z,99796.64
2019-01-31T17:37:08.409Z,99797.63
2019-01-31T17:39:56.039Z,99798.31
2019-01-31T17:42:24.231Z,99799.29
2019-01-31T17:44:52.431Z,99807.06
2019-01-31T17:47:20.617Z,99805.44
2019-01-31T17:52:43.477Z,99807.56
2019-01-31T18:03:22.207Z,99802.49
2019-01-31T18:05:50.390Z,99802.94
2019-01-31T18:08:18.586Z,99800.81
2019-01-31T18:13:34.003Z,99802.55
2019-01-31T18:16:02.183Z,99803.91
2019-01-31T18:18:30.378Z,99798.22
2019-01-31T18:20:58.557Z,99796.91
2019-01-31T18:23:26.748Z,99799.62
2019-01-31T18:25:54.946Z,99793.63
2019-01-31T18:28:23.133Z,99793.91
2019-01-31T18:30:51.322Z,99787.09
2019-01-31T18:33:19.510Z,99792.55
2019-01-31T18:35:47.708Z,99791.50
2019-01-31T18:38:15.905Z,99787.41
2019-01-31T18:41:24.220Z,99792.98
2019-01-31T18:43:52.413Z,99791.41
2019-01-31T18:46:20.601Z,99786.63
2019-01-31T18:48:48.793Z,99782.36
2019-01-31T18:51:16.999Z,99783.22
2019-01-31T18:53:45.189Z,99782.91
2019-01-31T18:56:13.383Z,99772.36
2019-01-31T18:58:41.567Z,99774.08
2019-01-31T19:01:09.766Z,99777.36
2019-01-31T19:03:37.944Z,99773.34
2019-01-31T19:06:06.142Z,99772.77
2019-01-31T19:08:53.433Z,99771.98
2019-01-31T19:11:21.623Z,99775.81
2019-01-31T19:13:49.799Z,99769.62
2019-01-31T19:16:18.014Z,99776.72
2019-01-31T19:18:46.191Z,99773.75
2019-01-31T19:21:14.386Z,99780.80
2019-01-31T19:23:42.565Z,99777.08
2019-01-31T19:26:10.760Z,99780.37
2019-01-31T19:28:39.019Z,99776.30
2019-01-31T19:31:07.210Z,99776.02
2019-01-31T19:33:54.826Z,99777.44
2019-01-31T19:36:23.013Z,99769.88
2019-01-31T19:38:51.198Z,99769.92
2019-01-31T19:41:19.418Z,99771.33
2019-01-31T19:43:47.607Z,99775.92
2019-01-31T19:46:16.884Z,99771.41
2019-01-31T19:48:45.702Z,99778.22
2019-01-31T19:51:13.891Z,99780.37
2019-01-31T19:53:42.074Z,99771.41
2019-01-31T19:56:10.271Z,99773.36
2019-01-31T19:58:38.453Z,99772.00
2019-01-31T20:01:06.642Z,99770.91
2019-01-31T20:03:34.820Z,99773.55
2019-01-31T20:08:38.101Z,99766.47
2019-01-31T20:11:06.309Z,99765.96
2019-01-31T20:13:34.518Z,99768.42
2019-01-31T20:16:02.724Z,99764.09
2019-01-31T20:18:30.909Z,99769.05
2019-01-31T20:20:59.168Z,99764.09
2019-01-31T20:23:27.359Z,99765.73
2019-01-31T20:25:55.540Z,99768.23
2019-01-31T20:31:03.056Z,99772.17
2019-01-31T20:33:31.253Z,99775.52
2019-01-31T20:35:59.435Z,99766.92
2019-01-31T20:38:27.625Z,99769.03
2019-01-31T20:40:55.804Z,99770.75
2019-01-31T20:43:24.007Z,99778.14
2019-01-31T20:45:52.187Z,99775.92
2019-01-31T20:48:20.388Z,99772.92
2019-01-31T20:50:48.572Z,99778.64
2019-01-31T20:53:16.772Z,99776.27
2019-01-31T20:55:44.956Z,99774.71
2019-01-31T20:58:13.148Z,99777.74
2019-01-31T21:03:55.355Z,99781.91
2019-01-31T21:06:23.532Z,99780.39
2019-01-31T21:08:51.724Z,99773.08
2019-01-31T21:11:19.919Z,99773.19
2019-01-31T21:13:48.119Z,99775.70
2019-01-31T21:16:16.292Z,99778.70
2019-01-31T21:18:44.492Z,99775.20
2019-01-31T21:21:12.674Z,99776.59
2019-01-31T21:23:40.881Z,99770.98
2019-01-31T21:26:09.068Z,99773.70
2019-01-31T21:28:37.260Z,99773.16
2019-01-31T21:31:05.437Z,99767.41
2019-01-31T21:33:33.628Z,99771.22
2019-01-31T21:36:01.807Z,99763.37
2019-01-31T21:38:30.001Z,99767.72
2019-01-31T21:40:58.205Z,99761.20
2019-01-31T21:43:26.389Z,99765.23
2019-01-31T21:45:54.575Z,99763.33
2019-01-31T21:48:22.779Z,99757.69
2019-01-31T21:53:38.213Z,99755.38
2019-01-31T21:56:06.394Z,99756.78
2019-01-31T21:58:34.593Z,99755.19
2019-01-31T22:01:02.769Z,99751.64
2019-01-31T22:03:30.975Z,99748.17
2019-01-31T22:08:46.391Z,99755.32
2019-01-31T22:11:14.577Z,99744.13
2019-01-31T22:13:42.797Z,99750.42
2019-01-31T22:16:30.437Z,99743.11
2019-01-31T22:18:58.596Z,99741.75
2019-01-31T22:21:26.789Z,99743.11
2019-01-31T22:23:54.994Z,99742.91
2019-01-31T22:26:23.182Z,99742.67
2019-01-31T22:28:51.379Z,99741.66
2019-01-31T22:31:19.566Z,99740.05
2019-01-31T22:33:47.776Z,99737.64
2019-01-31T22:36:15.958Z,99735.70
2019-01-31T22:38:45.666Z,99735.20
2019-01-31T22:41:14.074Z,99742.50
2019-01-31T22:43:42.281Z,99735.94
2019-01-31T22:46:10.456Z,99731.25
2019-01-31T22:48:38.637Z,99734.98
2019-01-31T22:51:06.838Z,99732.06
2019-01-31T22:53:35.027Z,99736.14
2019-01-31T22:56:03.235Z,99729.89
2019-01-31T22:58:31.416Z,99733.42
2019-01-31T23:01:39.723Z,99729.38
2019-01-31T23:04:27.281Z,99734.31
2019-01-31T23:06:55.582Z,99738.94
2019-01-31T23:09:23.753Z,99733.30
2019-01-31T23:11:52.015Z,99735.20
2019-01-31T23:14:39.646Z,99733.33
2019-01-31T23:17:07.831Z,99731.42
2019-01-31T23:19:36.041Z,99725.44
2019-01-31T23:22:23.594Z,99725.23
2019-01-31T23:24:51.793Z,99723.91
2019-01-31T23:27:19.984Z,99711.47
2019-01-31T23:29:48.173Z,99713.61
2019-01-31T23:32:16.360Z,99715.48
2019-01-31T23:34:44.549Z,99710.62
2019-01-31T23:37:12.736Z,99710.31
2019-01-31T23:39:40.952Z,99709.80
2019-01-31T23:42:09.142Z,99713.58
2019-01-31T23:44:37.336Z,99707.32
2019-01-31T23:47:05.530Z,99700.28
2019-01-31T23:49:33.720Z,99701.95
2019-01-31T23:52:01.914Z,99695.19
2019-01-31T23:54:30.101Z,99693.28
2019-01-31T23:56:58.303Z,99697.30
2019-01-31T23:59:26.491Z,99697.80
